sensor_id;sensor_type;location;lat;lon;timestamp;P1;durP1;ratioP1;P2;durP2;ratioP2
59302;SDS011;45074;52.764;6.896;2023-09-07T00:00:58;6.65;;;3.60;;
59302;SDS011;45074;52.764;6.896;2023-09-07T00:03:25;5.15;;;3.50;;
59302;SDS011;45074;52.764;6.896;2023-09-07T00:05:51;6.75;;;3.45;;
59302;SDS011;45074;52.764;6.896;2023-09-07T00:08:17;7.00;;;3.67;;
59302;SDS011;45074;52.764;6.896;2023-09-07T00:10:43;7.78;;;3.63;;
59302;SDS011;45074;52.764;6.896;2023-09-07T00:13:09;6.63;;;3.42;;
59302;SDS011;45074;52.764;6.896;2023-09-07T00:15:37;6.10;;;3.72;;
59302;SDS011;45074;52.764;6.896;2023-09-07T00:18:04;6.20;;;3.30;;
59302;SDS011;45074;52.764;6.896;2023-09-07T00:20:31;5.95;;;3.40;;
59302;SDS011;45074;52.764;6.896;2023-09-07T00:22:59;6.32;;;3.80;;
59302;SDS011;45074;52.764;6.896;2023-09-07T00:25:28;8.30;;;4.20;;
59302;SDS011;45074;52.764;6.896;2023-09-07T00:27:54;6.22;;;3.75;;
59302;SDS011;45074;52.764;6.896;2023-09-07T00:30:21;7.10;;;3.70;;
59302;SDS011;45074;52.764;6.896;2023-09-07T00:32:47;8.23;;;3.83;;
59302;SDS011;45074;52.764;6.896;2023-09-07T00:35:13;6.55;;;3.80;;
59302;SDS011;45074;52.764;6.896;2023-09-07T00:37:39;9.60;;;4.13;;
59302;SDS011;45074;52.764;6.896;2023-09-07T00:40:05;7.72;;;3.97;;
59302;SDS011;45074;52.764;6.896;2023-09-07T00:42:34;8.18;;;3.70;;
59302;SDS011;45074;52.764;6.896;2023-09-07T00:45:00;7.10;;;4.07;;
59302;SDS011;45074;52.764;6.896;2023-09-07T00:47:26;8.23;;;4.13;;
59302;SDS011;45074;52.764;6.896;2023-09-07T00:49:55;8.18;;;3.90;;
59302;SDS011;45074;52.764;6.896;2023-09-07T00:52:21;6.78;;;4.05;;
59302;SDS011;45074;52.764;6.896;2023-09-07T00:54:47;7.40;;;4.10;;
59302;SDS011;45074;52.764;6.896;2023-09-07T00:57:13;7.32;;;4.18;;
59302;SDS011;45074;52.764;6.896;2023-09-07T00:59:39;6.22;;;3.60;;
59302;SDS011;45074;52.764;6.896;2023-09-07T01:02:05;8.07;;;3.90;;
59302;SDS011;45074;52.764;6.896;2023-09-07T01:04:31;6.60;;;3.90;;
59302;SDS011;45074;52.764;6.896;2023-09-07T01:07:06;9.40;;;4.45;;
59302;SDS011;45074;52.764;6.896;2023-09-07T01:09:42;7.97;;;4.18;;
59302;SDS011;45074;52.764;6.896;2023-09-07T01:12:16;6.88;;;4.30;;
59302;SDS011;45074;52.764;6.896;2023-09-07T01:14:44;7.70;;;4.32;;
59302;SDS011;45074;52.764;6.896;2023-09-07T01:17:11;7.40;;;4.07;;
59302;SDS011;45074;52.764;6.896;2023-09-07T01:19:38;7.63;;;4.15;;
59302;SDS011;45074;52.764;6.896;2023-09-07T01:22:06;6.60;;;4.05;;
59302;SDS011;45074;52.764;6.896;2023-09-07T01:24:36;8.35;;;4.47;;
59302;SDS011;45074;52.764;6.896;2023-09-07T01:27:03;10.07;;;4.65;;
59302;SDS011;45074;52.764;6.896;2023-09-07T01:29:30;7.20;;;4.25;;
59302;SDS011;45074;52.764;6.896;2023-09-07T01:31:57;8.15;;;4.45;;
59302;SDS011;45074;52.764;6.896;2023-09-07T01:34:24;9.02;;;4.80;;
59302;SDS011;45074;52.764;6.896;2023-09-07T01:36:50;8.75;;;4.20;;
59302;SDS011;45074;52.764;6.896;2023-09-07T01:39:16;6.93;;;4.38;;
59302;SDS011;45074;52.764;6.896;2023-09-07T01:41:42;7.75;;;4.70;;
59302;SDS011;45074;52.764;6.896;2023-09-07T01:44:10;6.18;;;4.40;;
59302;SDS011;45074;52.764;6.896;2023-09-07T01:46:38;8.57;;;4.63;;
59302;SDS011;45074;52.764;6.896;2023-09-07T01:49:04;6.72;;;4.75;;
59302;SDS011;45074;52.764;6.896;2023-09-07T01:51:32;7.38;;;4.30;;
59302;SDS011;45074;52.764;6.896;2023-09-07T01:53:59;8.43;;;4.68;;
59302;SDS011;45074;52.764;6.896;2023-09-07T01:56:25;6.97;;;4.30;;
59302;SDS011;45074;52.764;6.896;2023-09-07T01:58:52;10.38;;;5.03;;
59302;SDS011;45074;52.764;6.896;2023-09-07T02:01:25;7.50;;;4.40;;
59302;SDS011;45074;52.764;6.896;2023-09-07T02:03:55;6.70;;;4.38;;
59302;SDS011;45074;52.764;6.896;2023-09-07T02:06:21;7.88;;;4.75;;
59302;SDS011;45074;52.764;6.896;2023-09-07T02:08:48;8.15;;;4.72;;
59302;SDS011;45074;52.764;6.896;2023-09-07T02:11:14;7.53;;;4.78;;
59302;SDS011;45074;52.764;6.896;2023-09-07T02:13:47;8.82;;;4.88;;
59302;SDS011;45074;52.764;6.896;2023-09-07T02:16:13;9.00;;;4.72;;
59302;SDS011;45074;52.764;6.896;2023-09-07T02:18:39;9.20;;;4.70;;
59302;SDS011;45074;52.764;6.896;2023-09-07T02:21:08;8.05;;;4.93;;
59302;SDS011;45074;52.764;6.896;2023-09-07T02:23:38;7.80;;;4.60;;
59302;SDS011;45074;52.764;6.896;2023-09-07T02:26:04;8.32;;;4.63;;
59302;SDS011;45074;52.764;6.896;2023-09-07T02:28:30;7.97;;;4.80;;
59302;SDS011;45074;52.764;6.896;2023-09-07T02:31:03;6.90;;;4.43;;
59302;SDS011;45074;52.764;6.896;2023-09-07T02:33:29;7.00;;;4.30;;
59302;SDS011;45074;52.764;6.896;2023-09-07T02:35:59;7.60;;;4.57;;
59302;SDS011;45074;52.764;6.896;2023-09-07T02:38:25;7.47;;;4.70;;
59302;SDS011;45074;52.764;6.896;2023-09-07T02:40:52;7.78;;;4.88;;
59302;SDS011;45074;52.764;6.896;2023-09-07T02:43:19;7.30;;;5.05;;
59302;SDS011;45074;52.764;6.896;2023-09-07T02:45:45;8.45;;;5.28;;
59302;SDS011;45074;52.764;6.896;2023-09-07T02:48:11;9.32;;;4.88;;
59302;SDS011;45074;52.764;6.896;2023-09-07T02:50:37;6.63;;;4.75;;
59302;SDS011;45074;52.764;6.896;2023-09-07T02:53:08;9.32;;;5.47;;
59302;SDS011;45074;52.764;6.896;2023-09-07T02:55:34;7.80;;;5.03;;
59302;SDS011;45074;52.764;6.896;2023-09-07T02:58:02;7.30;;;5.22;;
59302;SDS011;45074;52.764;6.896;2023-09-07T03:00:29;8.68;;;5.45;;
59302;SDS011;45074;52.764;6.896;2023-09-07T03:02:58;7.90;;;5.28;;
59302;SDS011;45074;52.764;6.896;2023-09-07T03:05:26;7.70;;;5.47;;
59302;SDS011;45074;52.764;6.896;2023-09-07T03:07:53;8.18;;;4.72;;
59302;SDS011;45074;52.764;6.896;2023-09-07T03:10:19;9.07;;;5.20;;
59302;SDS011;45074;52.764;6.896;2023-09-07T03:12:45;7.57;;;5.22;;
59302;SDS011;45074;52.764;6.896;2023-09-07T03:15:12;7.88;;;5.18;;
59302;SDS011;45074;52.764;6.896;2023-09-07T03:17:38;8.27;;;5.13;;
59302;SDS011;45074;52.764;6.896;2023-09-07T03:20:04;7.60;;;5.15;;
59302;SDS011;45074;52.764;6.896;2023-09-07T03:22:39;8.25;;;5.32;;
59302;SDS011;45074;52.764;6.896;2023-09-07T03:25:07;9.93;;;5.45;;
59302;SDS011;45074;52.764;6.896;2023-09-07T03:27:36;9.98;;;5.32;;
59302;SDS011;45074;52.764;6.896;2023-09-07T03:30:03;10.15;;;5.40;;
59302;SDS011;45074;52.764;6.896;2023-09-07T03:32:30;7.93;;;4.85;;
59302;SDS011;45074;52.764;6.896;2023-09-07T03:34:59;9.18;;;5.43;;
59302;SDS011;45074;52.764;6.896;2023-09-07T03:37:26;7.05;;;5.22;;
59302;SDS011;45074;52.764;6.896;2023-09-07T03:39:53;9.02;;;5.70;;
59302;SDS011;45074;52.764;6.896;2023-09-07T03:42:21;7.95;;;5.10;;
59302;SDS011;45074;52.764;6.896;2023-09-07T03:44:47;8.40;;;5.20;;
59302;SDS011;45074;52.764;6.896;2023-09-07T03:47:15;8.30;;;5.50;;
59302;SDS011;45074;52.764;6.896;2023-09-07T03:49:43;8.93;;;5.97;;
59302;SDS011;45074;52.764;6.896;2023-09-07T03:52:09;11.20;;;5.97;;
59302;SDS011;45074;52.764;6.896;2023-09-07T03:54:36;8.02;;;5.32;;
59302;SDS011;45074;52.764;6.896;2023-09-07T03:57:03;7.88;;;5.45;;
59302;SDS011;45074;52.764;6.896;2023-09-07T03:59:29;8.10;;;5.32;;
59302;SDS011;45074;52.764;6.896;2023-09-07T04:01:55;8.90;;;5.53;;
59302;SDS011;45074;52.764;6.896;2023-09-07T04:04:21;7.78;;;5.40;;
59302;SDS011;45074;52.764;6.896;2023-09-07T04:06:47;9.55;;;5.50;;
59302;SDS011;45074;52.764;6.896;2023-09-07T04:09:14;8.82;;;5.38;;
59302;SDS011;45074;52.764;6.896;2023-09-07T04:11:40;9.05;;;5.57;;
59302;SDS011;45074;52.764;6.896;2023-09-07T04:14:07;8.70;;;5.80;;
59302;SDS011;45074;52.764;6.896;2023-09-07T04:16:33;9.43;;;5.65;;
59302;SDS011;45074;52.764;6.896;2023-09-07T04:19:04;8.32;;;5.68;;
59302;SDS011;45074;52.764;6.896;2023-09-07T04:21:31;8.10;;;5.65;;
59302;SDS011;45074;52.764;6.896;2023-09-07T04:23:56;8.55;;;5.53;;
59302;SDS011;45074;52.764;6.896;2023-09-07T04:26:22;10.70;;;5.80;;
59302;SDS011;45074;52.764;6.896;2023-09-07T04:28:50;9.93;;;6.32;;
59302;SDS011;45074;52.764;6.896;2023-09-07T04:31:15;8.95;;;6.07;;
59302;SDS011;45074;52.764;6.896;2023-09-07T04:33:41;9.65;;;6.40;;
59302;SDS011;45074;52.764;6.896;2023-09-07T04:36:13;9.50;;;5.82;;
59302;SDS011;45074;52.764;6.896;2023-09-07T04:38:39;9.55;;;6.07;;
59302;SDS011;45074;52.764;6.896;2023-09-07T04:41:12;9.30;;;5.88;;
59302;SDS011;45074;52.764;6.896;2023-09-07T04:43:41;10.57;;;6.10;;
59302;SDS011;45074;52.764;6.896;2023-09-07T04:46:08;9.48;;;5.45;;
59302;SDS011;45074;52.764;6.896;2023-09-07T04:48:34;9.02;;;6.13;;
59302;SDS011;45074;52.764;6.896;2023-09-07T04:51:07;9.75;;;6.38;;
59302;SDS011;45074;52.764;6.896;2023-09-07T04:53:35;9.82;;;6.13;;
59302;SDS011;45074;52.764;6.896;2023-09-07T04:56:03;10.20;;;6.53;;
59302;SDS011;45074;52.764;6.896;2023-09-07T04:58:29;10.95;;;6.22;;
59302;SDS011;45074;52.764;6.896;2023-09-07T05:01:01;8.48;;;6.43;;
59302;SDS011;45074;52.764;6.896;2023-09-07T05:03:30;10.07;;;6.38;;
59302;SDS011;45074;52.764;6.896;2023-09-07T05:05:56;9.68;;;5.85;;
59302;SDS011;45074;52.764;6.896;2023-09-07T05:08:23;9.23;;;6.28;;
59302;SDS011;45074;52.764;6.896;2023-09-07T05:10:55;10.43;;;6.82;;
59302;SDS011;45074;52.764;6.896;2023-09-07T05:13:22;9.35;;;6.30;;
59302;SDS011;45074;52.764;6.896;2023-09-07T05:15:49;8.15;;;5.97;;
59302;SDS011;45074;52.764;6.896;2023-09-07T05:18:17;10.40;;;7.35;;
59302;SDS011;45074;52.764;6.896;2023-09-07T05:20:43;10.35;;;6.75;;
59302;SDS011;45074;52.764;6.896;2023-09-07T05:25:44;11.85;;;6.63;;
59302;SDS011;45074;52.764;6.896;2023-09-07T05:28:10;10.48;;;7.13;;
59302;SDS011;45074;52.764;6.896;2023-09-07T05:30:37;10.40;;;6.85;;
59302;SDS011;45074;52.764;6.896;2023-09-07T05:33:03;9.57;;;6.90;;
59302;SDS011;45074;52.764;6.896;2023-09-07T05:35:29;10.13;;;7.07;;
59302;SDS011;45074;52.764;6.896;2023-09-07T05:37:57;9.70;;;6.78;;
59302;SDS011;45074;52.764;6.896;2023-09-07T05:40:23;10.88;;;7.35;;
59302;SDS011;45074;52.764;6.896;2023-09-07T05:42:49;9.20;;;6.60;;
59302;SDS011;45074;52.764;6.896;2023-09-07T05:45:15;10.40;;;7.20;;
59302;SDS011;45074;52.764;6.896;2023-09-07T05:47:42;8.70;;;6.88;;
59302;SDS011;45074;52.764;6.896;2023-09-07T05:50:08;8.38;;;6.78;;
59302;SDS011;45074;52.764;6.896;2023-09-07T05:52:34;10.35;;;6.93;;
59302;SDS011;45074;52.764;6.896;2023-09-07T05:55:00;12.68;;;7.18;;
59302;SDS011;45074;52.764;6.896;2023-09-07T05:57:26;11.25;;;7.20;;
59302;SDS011;45074;52.764;6.896;2023-09-07T05:59:52;10.20;;;6.72;;
59302;SDS011;45074;52.764;6.896;2023-09-07T06:02:24;10.15;;;7.22;;
59302;SDS011;45074;52.764;6.896;2023-09-07T06:04:51;11.05;;;7.13;;
59302;SDS011;45074;52.764;6.896;2023-09-07T06:07:17;9.95;;;7.38;;
59302;SDS011;45074;52.764;6.896;2023-09-07T06:09:43;11.93;;;7.78;;
59302;SDS011;45074;52.764;6.896;2023-09-07T06:12:10;12.48;;;8.00;;
59302;SDS011;45074;52.764;6.896;2023-09-07T06:14:37;9.55;;;7.35;;
59302;SDS011;45074;52.764;6.896;2023-09-07T06:17:03;11.20;;;7.50;;
59302;SDS011;45074;52.764;6.896;2023-09-07T06:19:29;9.60;;;7.35;;
59302;SDS011;45074;52.764;6.896;2023-09-07T06:21:55;9.73;;;7.80;;
59302;SDS011;45074;52.764;6.896;2023-09-07T06:24:21;11.40;;;7.22;;
59302;SDS011;45074;52.764;6.896;2023-09-07T06:26:47;11.07;;;7.65;;
59302;SDS011;45074;52.764;6.896;2023-09-07T06:29:18;11.23;;;7.63;;
59302;SDS011;45074;52.764;6.896;2023-09-07T06:31:49;12.88;;;7.90;;
59302;SDS011;45074;52.764;6.896;2023-09-07T06:34:15;11.75;;;8.18;;
59302;SDS011;45074;52.764;6.896;2023-09-07T06:36:41;10.85;;;8.32;;
59302;SDS011;45074;52.764;6.896;2023-09-07T06:39:07;13.40;;;7.50;;
59302;SDS011;45074;52.764;6.896;2023-09-07T06:41:34;13.73;;;8.40;;
59302;SDS011;45074;52.764;6.896;2023-09-07T06:44:01;10.95;;;7.65;;
59302;SDS011;45074;52.764;6.896;2023-09-07T06:46:27;11.20;;;8.07;;
59302;SDS011;45074;52.764;6.896;2023-09-07T06:48:53;12.85;;;8.10;;
59302;SDS011;45074;52.764;6.896;2023-09-07T06:51:19;12.02;;;8.52;;
59302;SDS011;45074;52.764;6.896;2023-09-07T06:53:45;13.90;;;8.15;;
59302;SDS011;45074;52.764;6.896;2023-09-07T06:56:12;11.63;;;8.18;;
59302;SDS011;45074;52.764;6.896;2023-09-07T06:58:38;11.07;;;7.60;;
59302;SDS011;45074;52.764;6.896;2023-09-07T07:01:04;12.88;;;8.27;;
59302;SDS011;45074;52.764;6.896;2023-09-07T07:03:31;11.88;;;8.20;;
59302;SDS011;45074;52.764;6.896;2023-09-07T07:05:57;13.63;;;8.13;;
59302;SDS011;45074;52.764;6.896;2023-09-07T07:08:23;10.85;;;7.95;;
59302;SDS011;45074;52.764;6.896;2023-09-07T07:10:49;11.10;;;7.50;;
59302;SDS011;45074;52.764;6.896;2023-09-07T07:13:18;12.10;;;7.80;;
59302;SDS011;45074;52.764;6.896;2023-09-07T07:15:45;13.60;;;7.57;;
59302;SDS011;45074;52.764;6.896;2023-09-07T07:18:11;12.27;;;7.53;;
59302;SDS011;45074;52.764;6.896;2023-09-07T07:20:37;10.68;;;7.40;;
59302;SDS011;45074;52.764;6.896;2023-09-07T07:23:07;10.25;;;7.70;;
59302;SDS011;45074;52.764;6.896;2023-09-07T07:25:33;11.18;;;7.53;;
59302;SDS011;45074;52.764;6.896;2023-09-07T07:28:00;10.85;;;6.93;;
59302;SDS011;45074;52.764;6.896;2023-09-07T07:30:29;12.48;;;7.05;;
59302;SDS011;45074;52.764;6.896;2023-09-07T07:32:55;11.80;;;6.72;;
59302;SDS011;45074;52.764;6.896;2023-09-07T07:35:21;10.32;;;6.53;;
59302;SDS011;45074;52.764;6.896;2023-09-07T07:37:49;11.32;;;6.20;;
59302;SDS011;45074;52.764;6.896;2023-09-07T07:40:15;11.25;;;6.20;;
59302;SDS011;45074;52.764;6.896;2023-09-07T07:42:43;10.02;;;5.95;;
59302;SDS011;45074;52.764;6.896;2023-09-07T07:45:09;9.80;;;6.30;;
59302;SDS011;45074;52.764;6.896;2023-09-07T07:47:35;9.27;;;5.78;;
59302;SDS011;45074;52.764;6.896;2023-09-07T07:50:01;11.27;;;6.00;;
59302;SDS011;45074;52.764;6.896;2023-09-07T07:52:28;10.63;;;5.90;;
59302;SDS011;45074;52.764;6.896;2023-09-07T07:54:54;8.35;;;5.68;;
59302;SDS011;45074;52.764;6.896;2023-09-07T07:57:20;9.75;;;5.50;;
59302;SDS011;45074;52.764;6.896;2023-09-07T07:59:46;8.98;;;5.35;;
59302;SDS011;45074;52.764;6.896;2023-09-07T08:02:12;8.60;;;5.75;;
59302;SDS011;45074;52.764;6.896;2023-09-07T08:04:38;8.25;;;5.13;;
59302;SDS011;45074;52.764;6.896;2023-09-07T08:07:05;9.13;;;5.40;;
59302;SDS011;45074;52.764;6.896;2023-09-07T08:09:33;10.60;;;5.30;;
59302;SDS011;45074;52.764;6.896;2023-09-07T08:11:59;10.38;;;5.13;;
59302;SDS011;45074;52.764;6.896;2023-09-07T08:14:28;9.52;;;5.25;;
59302;SDS011;45074;52.764;6.896;2023-09-07T08:16:54;8.88;;;5.60;;
59302;SDS011;45074;52.764;6.896;2023-09-07T08:19:20;11.30;;;5.43;;
59302;SDS011;45074;52.764;6.896;2023-09-07T08:21:46;10.35;;;4.85;;
59302;SDS011;45074;52.764;6.896;2023-09-07T08:24:13;8.95;;;5.53;;
59302;SDS011;45074;52.764;6.896;2023-09-07T08:26:39;8.55;;;4.65;;
59302;SDS011;45074;52.764;6.896;2023-09-07T08:29:05;9.20;;;5.10;;
59302;SDS011;45074;52.764;6.896;2023-09-07T08:31:33;8.98;;;4.80;;
59302;SDS011;45074;52.764;6.896;2023-09-07T08:34:00;8.05;;;4.97;;
59302;SDS011;45074;52.764;6.896;2023-09-07T08:36:28;8.38;;;5.18;;
59302;SDS011;45074;52.764;6.896;2023-09-07T08:38:57;8.32;;;4.90;;
59302;SDS011;45074;52.764;6.896;2023-09-07T08:41:26;8.45;;;4.50;;
59302;SDS011;45074;52.764;6.896;2023-09-07T08:43:53;9.57;;;4.80;;
59302;SDS011;45074;52.764;6.896;2023-09-07T08:46:23;8.27;;;5.00;;
59302;SDS011;45074;52.764;6.896;2023-09-07T08:48:49;9.90;;;4.38;;
59302;SDS011;45074;52.764;6.896;2023-09-07T08:51:16;9.30;;;4.97;;
59302;SDS011;45074;52.764;6.896;2023-09-07T08:53:43;11.77;;;4.75;;
59302;SDS011;45074;52.764;6.896;2023-09-07T08:56:14;9.77;;;4.80;;
59302;SDS011;45074;52.764;6.896;2023-09-07T08:58:42;10.18;;;4.90;;
59302;SDS011;45074;52.764;6.896;2023-09-07T09:01:14;10.85;;;4.30;;
59302;SDS011;45074;52.764;6.896;2023-09-07T09:03:42;10.73;;;4.82;;
59302;SDS011;45074;52.764;6.896;2023-09-07T09:06:08;7.78;;;4.38;;
59302;SDS011;45074;52.764;6.896;2023-09-07T09:08:42;10.20;;;4.72;;
59302;SDS011;45074;52.764;6.896;2023-09-07T09:11:22;8.32;;;4.22;;
59302;SDS011;45074;52.764;6.896;2023-09-07T09:13:50;7.47;;;4.20;;
59302;SDS011;45074;52.764;6.896;2023-09-07T09:16:17;6.78;;;4.20;;
59302;SDS011;45074;52.764;6.896;2023-09-07T09:21:23;9.80;;;4.35;;
59302;SDS011;45074;52.764;6.896;2023-09-07T09:23:51;8.45;;;4.53;;
59302;SDS011;45074;52.764;6.896;2023-09-07T09:26:19;11.90;;;4.65;;
59302;SDS011;45074;52.764;6.896;2023-09-07T09:28:45;8.57;;;4.43;;
59302;SDS011;45074;52.764;6.896;2023-09-07T09:31:12;8.25;;;4.63;;
59302;SDS011;45074;52.764;6.896;2023-09-07T09:33:41;7.72;;;4.32;;
59302;SDS011;45074;52.764;6.896;2023-09-07T09:36:08;8.68;;;4.80;;
59302;SDS011;45074;52.764;6.896;2023-09-07T09:38:34;8.23;;;4.72;;
59302;SDS011;45074;52.764;6.896;2023-09-07T09:41:01;8.60;;;4.70;;
59302;SDS011;45074;52.764;6.896;2023-09-07T09:43:28;9.63;;;4.50;;
59302;SDS011;45074;52.764;6.896;2023-09-07T09:45:54;10.32;;;4.70;;
59302;SDS011;45074;52.764;6.896;2023-09-07T09:48:21;8.43;;;4.20;;
59302;SDS011;45074;52.764;6.896;2023-09-07T09:50:47;11.20;;;4.45;;
59302;SDS011;45074;52.764;6.896;2023-09-07T09:53:14;8.10;;;4.68;;
59302;SDS011;45074;52.764;6.896;2023-09-07T09:55:44;6.82;;;4.15;;
59302;SDS011;45074;52.764;6.896;2023-09-07T09:58:13;8.30;;;4.45;;
59302;SDS011;45074;52.764;6.896;2023-09-07T10:00:41;7.28;;;4.70;;
59302;SDS011;45074;52.764;6.896;2023-09-07T10:03:24;7.78;;;4.32;;
59302;SDS011;45074;52.764;6.896;2023-09-07T10:06:32;9.07;;;4.60;;
59302;SDS011;45074;52.764;6.896;2023-09-07T10:09:02;11.38;;;4.85;;
59302;SDS011;45074;52.764;6.896;2023-09-07T10:11:35;9.60;;;4.72;;
59302;SDS011;45074;52.764;6.896;2023-09-07T10:14:05;8.35;;;4.20;;
59302;SDS011;45074;52.764;6.896;2023-09-07T10:16:48;8.82;;;4.72;;
59302;SDS011;45074;52.764;6.896;2023-09-07T10:19:20;7.95;;;4.50;;
59302;SDS011;45074;52.764;6.896;2023-09-07T10:21:46;9.10;;;4.35;;
59302;SDS011;45074;52.764;6.896;2023-09-07T10:24:34;7.05;;;4.80;;
59302;SDS011;45074;52.764;6.896;2023-09-07T10:27:08;8.18;;;4.63;;
59302;SDS011;45074;52.764;6.896;2023-09-07T10:29:42;10.82;;;4.50;;
59302;SDS011;45074;52.764;6.896;2023-09-07T10:32:10;11.30;;;4.60;;
59302;SDS011;45074;52.764;6.896;2023-09-07T10:34:38;8.45;;;4.70;;
59302;SDS011;45074;52.764;6.896;2023-09-07T10:37:12;7.70;;;4.32;;
59302;SDS011;45074;52.764;6.896;2023-09-07T10:39:40;8.90;;;4.13;;
59302;SDS011;45074;52.764;6.896;2023-09-07T10:42:23;8.60;;;4.80;;
59302;SDS011;45074;52.764;6.896;2023-09-07T10:44:50;9.60;;;4.93;;
59302;SDS011;45074;52.764;6.896;2023-09-07T10:47:16;8.07;;;4.55;;
59302;SDS011;45074;52.764;6.896;2023-09-07T10:49:42;7.90;;;4.40;;
59302;SDS011;45074;52.764;6.896;2023-09-07T10:52:09;8.85;;;4.95;;
59302;SDS011;45074;52.764;6.896;2023-09-07T10:54:55;7.20;;;4.50;;
59302;SDS011;45074;52.764;6.896;2023-09-07T10:57:24;8.45;;;4.78;;
59302;SDS011;45074;52.764;6.896;2023-09-07T10:59:50;7.25;;;4.82;;
59302;SDS011;45074;52.764;6.896;2023-09-07T11:02:20;9.35;;;4.68;;
59302;SDS011;45074;52.764;6.896;2023-09-07T11:04:46;10.43;;;4.93;;
59302;SDS011;45074;52.764;6.896;2023-09-07T11:07:15;6.75;;;4.53;;
59302;SDS011;45074;52.764;6.896;2023-09-07T11:09:42;7.65;;;4.32;;
59302;SDS011;45074;52.764;6.896;2023-09-07T11:12:11;8.88;;;4.70;;
59302;SDS011;45074;52.764;6.896;2023-09-07T11:14:38;6.88;;;4.75;;
59302;SDS011;45074;52.764;6.896;2023-09-07T11:17:08;8.77;;;4.50;;
59302;SDS011;45074;52.764;6.896;2023-09-07T11:19:34;10.60;;;4.63;;
59302;SDS011;45074;52.764;6.896;2023-09-07T11:22:00;8.85;;;4.60;;
59302;SDS011;45074;52.764;6.896;2023-09-07T11:24:31;7.97;;;4.70;;
59302;SDS011;45074;52.764;6.896;2023-09-07T11:27:00;6.88;;;4.75;;
59302;SDS011;45074;52.764;6.896;2023-09-07T11:29:26;7.70;;;4.93;;
59302;SDS011;45074;52.764;6.896;2023-09-07T11:31:52;7.40;;;4.65;;
59302;SDS011;45074;52.764;6.896;2023-09-07T11:34:18;8.05;;;4.53;;
59302;SDS011;45074;52.764;6.896;2023-09-07T11:36:49;7.60;;;4.30;;
59302;SDS011;45074;52.764;6.896;2023-09-07T11:39:21;5.75;;;3.90;;
59302;SDS011;45074;52.764;6.896;2023-09-07T11:41:48;7.20;;;4.45;;
59302;SDS011;45074;52.764;6.896;2023-09-07T11:44:19;6.68;;;4.47;;
59302;SDS011;45074;52.764;6.896;2023-09-07T11:46:46;6.63;;;4.30;;
59302;SDS011;45074;52.764;6.896;2023-09-07T11:49:12;6.75;;;4.30;;
59302;SDS011;45074;52.764;6.896;2023-09-07T11:51:38;8.60;;;4.40;;
59302;SDS011;45074;52.764;6.896;2023-09-07T11:54:07;8.35;;;4.65;;
59302;SDS011;45074;52.764;6.896;2023-09-07T11:56:33;9.00;;;4.68;;
59302;SDS011;45074;52.764;6.896;2023-09-07T11:59:04;8.63;;;4.32;;
59302;SDS011;45074;52.764;6.896;2023-09-07T12:01:30;8.60;;;4.25;;
59302;SDS011;45074;52.764;6.896;2023-09-07T12:03:59;6.63;;;3.90;;
59302;SDS011;45074;52.764;6.896;2023-09-07T12:06:25;6.60;;;4.05;;
59302;SDS011;45074;52.764;6.896;2023-09-07T12:09:01;6.78;;;4.25;;
59302;SDS011;45074;52.764;6.896;2023-09-07T12:11:28;9.45;;;4.22;;
59302;SDS011;45074;52.764;6.896;2023-09-07T12:13:55;7.97;;;4.00;;
59302;SDS011;45074;52.764;6.896;2023-09-07T12:16:21;5.90;;;3.92;;
59302;SDS011;45074;52.764;6.896;2023-09-07T12:18:48;8.20;;;3.92;;
59302;SDS011;45074;52.764;6.896;2023-09-07T12:21:14;5.45;;;3.60;;
59302;SDS011;45074;52.764;6.896;2023-09-07T12:23:40;6.25;;;3.70;;
59302;SDS011;45074;52.764;6.896;2023-09-07T12:26:06;9.10;;;4.00;;
59302;SDS011;45074;52.764;6.896;2023-09-07T12:28:34;6.18;;;3.67;;
59302;SDS011;45074;52.764;6.896;2023-09-07T12:31:01;6.53;;;3.75;;
59302;SDS011;45074;52.764;6.896;2023-09-07T12:33:27;6.65;;;3.70;;
59302;SDS011;45074;52.764;6.896;2023-09-07T12:35:55;6.63;;;3.92;;
59302;SDS011;45074;52.764;6.896;2023-09-07T12:38:23;7.13;;;4.10;;
59302;SDS011;45074;52.764;6.896;2023-09-07T12:43:22;7.70;;;3.90;;
59302;SDS011;45074;52.764;6.896;2023-09-07T12:45:50;6.10;;;3.60;;
59302;SDS011;45074;52.764;6.896;2023-09-07T12:48:16;6.40;;;3.78;;
59302;SDS011;45074;52.764;6.896;2023-09-07T12:50:42;5.13;;;3.55;;
59302;SDS011;45074;52.764;6.896;2023-09-07T12:53:08;5.53;;;3.45;;
59302;SDS011;45074;52.764;6.896;2023-09-07T12:55:35;4.95;;;3.47;;
59302;SDS011;45074;52.764;6.896;2023-09-07T12:58:01;5.38;;;3.47;;
59302;SDS011;45074;52.764;6.896;2023-09-07T13:00:27;5.95;;;3.45;;
59302;SDS011;45074;52.764;6.896;2023-09-07T13:02:55;6.70;;;3.38;;
59302;SDS011;45074;52.764;6.896;2023-09-07T13:05:24;8.13;;;3.40;;
59302;SDS011;45074;52.764;6.896;2023-09-07T13:07:50;4.82;;;3.40;;
59302;SDS011;45074;52.764;6.896;2023-09-07T13:10:22;8.10;;;3.63;;
59302;SDS011;45074;52.764;6.896;2023-09-07T13:12:51;5.03;;;3.42;;
59302;SDS011;45074;52.764;6.896;2023-09-07T13:15:17;6.78;;;3.50;;
59302;SDS011;45074;52.764;6.896;2023-09-07T13:17:50;4.72;;;3.42;;
59302;SDS011;45074;52.764;6.896;2023-09-07T13:20:16;7.18;;;3.35;;
59302;SDS011;45074;52.764;6.896;2023-09-07T13:22:45;6.07;;;3.40;;
59302;SDS011;45074;52.764;6.896;2023-09-07T13:25:11;6.32;;;3.47;;
59302;SDS011;45074;52.764;6.896;2023-09-07T13:27:39;8.13;;;3.78;;
59302;SDS011;45074;52.764;6.896;2023-09-07T13:30:06;5.38;;;3.03;;
59302;SDS011;45074;52.764;6.896;2023-09-07T13:32:37;5.63;;;3.10;;
59302;SDS011;45074;52.764;6.896;2023-09-07T13:35:06;7.85;;;3.50;;
59302;SDS011;45074;52.764;6.896;2023-09-07T13:37:33;7.30;;;3.40;;
59302;SDS011;45074;52.764;6.896;2023-09-07T13:40:00;5.97;;;3.30;;
59302;SDS011;45074;52.764;6.896;2023-09-07T13:42:28;7.10;;;3.50;;
59302;SDS011;45074;52.764;6.896;2023-09-07T13:44:54;5.72;;;3.33;;
59302;SDS011;45074;52.764;6.896;2023-09-07T13:47:21;5.22;;;2.95;;
59302;SDS011;45074;52.764;6.896;2023-09-07T13:49:47;5.85;;;3.38;;
59302;SDS011;45074;52.764;6.896;2023-09-07T13:54:42;7.00;;;3.35;;
59302;SDS011;45074;52.764;6.896;2023-09-07T13:57:09;5.65;;;3.30;;
59302;SDS011;45074;52.764;6.896;2023-09-07T13:59:36;7.82;;;3.55;;
59302;SDS011;45074;52.764;6.896;2023-09-07T14:02:02;6.00;;;3.30;;
59302;SDS011;45074;52.764;6.896;2023-09-07T14:04:28;5.47;;;3.20;;
59302;SDS011;45074;52.764;6.896;2023-09-07T14:06:58;6.28;;;3.20;;
59302;SDS011;45074;52.764;6.896;2023-09-07T14:09:25;5.80;;;3.65;;
59302;SDS011;45074;52.764;6.896;2023-09-07T14:11:54;6.20;;;3.20;;
59302;SDS011;45074;52.764;6.896;2023-09-07T14:14:23;5.68;;;3.50;;
59302;SDS011;45074;52.764;6.896;2023-09-07T14:16:49;5.50;;;3.17;;
59302;SDS011;45074;52.764;6.896;2023-09-07T14:19:20;4.88;;;3.25;;
59302;SDS011;45074;52.764;6.896;2023-09-07T14:21:53;8.23;;;3.70;;
59302;SDS011;45074;52.764;6.896;2023-09-07T14:24:23;7.90;;;3.25;;
59302;SDS011;45074;52.764;6.896;2023-09-07T14:27:09;5.50;;;3.33;;
59302;SDS011;45074;52.764;6.896;2023-09-07T14:29:35;6.93;;;3.45;;
59302;SDS011;45074;52.764;6.896;2023-09-07T14:32:02;8.18;;;3.42;;
59302;SDS011;45074;52.764;6.896;2023-09-07T14:34:35;6.53;;;3.45;;
59302;SDS011;45074;52.764;6.896;2023-09-07T14:37:05;7.43;;;3.33;;
59302;SDS011;45074;52.764;6.896;2023-09-07T14:39:31;6.30;;;3.30;;
59302;SDS011;45074;52.764;6.896;2023-09-07T14:41:57;6.38;;;3.30;;
59302;SDS011;45074;52.764;6.896;2023-09-07T14:44:29;7.63;;;3.55;;
59302;SDS011;45074;52.764;6.896;2023-09-07T14:46:55;7.63;;;3.22;;
59302;SDS011;45074;52.764;6.896;2023-09-07T14:49:23;7.72;;;3.00;;
59302;SDS011;45074;52.764;6.896;2023-09-07T14:51:49;6.82;;;3.15;;
59302;SDS011;45074;52.764;6.896;2023-09-07T14:54:16;6.88;;;3.35;;
59302;SDS011;45074;52.764;6.896;2023-09-07T14:56:43;5.80;;;3.28;;
59302;SDS011;45074;52.764;6.896;2023-09-07T14:59:09;6.70;;;3.25;;